Latest Weather Observations for Legendre Island

IDW60801

Issued at 5:05 pm WST Friday 31 October 2014 (issued every 30 minutes, with the page automatically refreshed every 10 minutes)

About weather observations | Map of weather stations | Latest weather observations for WA | Other Formats
Station Details ID: 004095 Name: LEGENDRE ISLAND Lat: -20.36 Lon: 116.84 Height: 29.0 m
Data from the previous 72 hours. | See also: Recent months for locations in Western Australia
Date/Time
WST
Temp
°C
App
Temp
°C
Dew
Point
Rel
Hum
%
Delta-T
°C
Wind Press
QNH
hPa
Press
MSL
hPa
Rain
since 9 am
mm
Dir
 
Spd
km/h
Gust
km/h
Spd
kts
Gust
kts
31/05:00pm 27.7 26.2 21.0 67 4.5 WSW 30 37 16 20 1007.8 1007.7 -
31/04:30pm 28.2 26.0 20.7 63 5.0 WSW 33 39 18 21 1007.6 1007.5 -
31/04:00pm 28.8 26.9 21.3 64 5.0 WSW 33 39 18 21 1007.6 1007.5 -
31/03:30pm 29.0 26.4 20.7 61 5.5 WSW 35 41 19 22 1007.7 1007.6 -
31/03:00pm 29.3 26.9 21.0 61 5.5 WSW 35 43 19 23 1007.6 1007.5 -
31/02:30pm 29.3 26.5 21.0 61 5.5 WSW 37 44 20 24 1007.8 1007.7 -
31/02:00pm 29.0 26.2 21.0 62 5.3 WSW 37 44 20 24 1008.0 1007.9 -
31/01:30pm 29.3 26.5 21.0 61 5.5 WSW 37 46 20 25 1008.4 1008.3 -
31/01:00pm 29.4 26.4 21.4 62 5.4 WSW 39 46 21 25 1008.8 1008.7 -
31/12:30pm 29.1 25.6 21.1 62 5.3 WSW 41 48 22 26 1009.0 1008.9 -
31/12:00pm 29.1 26.2 20.8 61 5.5 WSW 37 44 20 24 1009.3 1009.2 -
31/11:30am 30.1 28.3 21.2 59 6.0 WSW 32 39 17 21 1009.5 1009.4 -
31/11:00am 30.3 27.6 19.3 51 7.2 WSW 32 37 17 20 1009.7 1009.6 -
31/10:30am 30.9 29.4 20.2 53 7.1 WSW 28 35 15 19 1010.1 1010.0 -
31/10:00am 29.6 26.9 18.4 51 7.2 SW 30 35 16 19 1010.2 1010.1 -
31/09:30am 29.2 26.1 18.3 51 7.0 SW 32 37 17 20 1010.2 1010.1 -
31/09:00am 28.3 24.1 18.1 54 6.5 SW 37 44 20 24 1010.1 1010.0 -
31/08:30am 27.4 24.1 18.4 58 5.7 SW 33 41 18 22 1010.1 1010.0 -
31/08:00am 27.7 24.2 17.8 54 6.3 SW 33 43 18 23 1010.0 1009.9 -
31/07:30am 26.6 21.6 17.1 56 5.9 SW 39 46 21 25 1009.9 1009.8 -
31/07:00am 26.0 21.6 17.6 60 5.3 SW 37 44 20 24 1009.9 1009.8 -
31/06:30am 25.6 21.5 18.3 64 4.6 SW 37 48 20 26 1009.7 1009.6 -
31/06:00am 25.0 20.7 18.7 68 4.0 SW 39 46 21 25 1009.3 1009.2 -
31/05:30am 24.9 20.8 19.1 70 3.7 SW 39 44 21 24 1009.1 1009.0 -
31/05:00am 25.1 21.4 19.2 70 3.8 SW 37 46 20 25 1008.9 1008.8 -
31/04:30am 25.3 21.7 19.4 70 3.8 SW 37 44 20 24 1008.6 1008.5 -
31/04:00am 25.4 22.6 19.5 70 3.8 SW 33 41 18 22 1008.4 1008.3 -
31/03:30am 25.7 23.0 19.6 69 3.9 SW 33 41 18 22 1008.4 1008.3 -
31/03:00am 25.8 22.6 19.4 67 4.1 SW 35 46 19 25 1008.4 1008.3 -
31/02:30am 26.0 22.5 19.6 68 4.1 SW 37 46 20 25 1008.4 1008.3 -
31/02:00am 26.3 22.9 19.9 68 4.2 SW 37 44 20 24 1008.4 1008.3 -
31/01:30am 26.4 23.5 20.0 68 4.2 SW 35 44 19 24 1008.6 1008.5 -
31/01:00am 26.3 23.5 21.7 76 3.1 SW 39 44 21 24 1008.7 1008.6 -
31/12:30am 26.3 23.0 22.2 78 2.8 SW 43 50 23 27 1008.9 1008.8 -
31/12:00am 26.4 24.3 22.3 78 2.8 SW 37 46 20 25 1009.2 1009.1 -
 
Date/Time
WST
Temp
°C
App
Temp
°C
Dew
Point
Rel
Hum
%
Delta-T
°C
Wind Press
QNH
hPa
Press
MSL
hPa
Rain
since 9 am
mm
Dir
 
Spd
km/h
Gust
km/h
Spd
kts
Gust
kts
30/11:30pm 26.5 24.9 21.9 76 3.1 SW 33 41 18 22 1009.7 1009.6 -
30/11:00pm 26.4 25.4 22.0 77 3.0 SW 30 37 16 20 1010.1 1010.0 -
30/10:30pm 26.3 25.8 22.2 78 2.8 SW 28 35 15 19 1010.3 1010.2 -
30/10:00pm 26.4 25.4 22.0 77 3.0 SW 30 35 16 19 1010.5 1010.4 -
30/09:30pm 26.4 25.3 21.8 76 3.1 SW 30 37 16 20 1010.5 1010.4 -
30/09:00pm 26.5 24.4 21.7 75 3.2 SW 35 43 19 23 1010.1 1010.0 -
30/08:30pm 26.5 25.0 21.7 75 3.2 WSW 32 37 17 20 1010.1 1010.0 -
30/08:00pm 26.5 24.6 21.3 73 3.5 WSW 33 39 18 21 1009.9 1009.8 -
30/07:30pm 26.4 25.0 21.2 73 3.4 WSW 30 35 16 19 1009.7 1009.6 -
30/07:00pm 26.3 24.4 21.3 74 3.3 WSW 33 37 18 20 1009.3 1009.2 -
30/06:30pm 26.4 25.1 20.7 71 3.8 WSW 28 33 15 18 1009.0 1008.9 -
30/06:00pm 27.1 26.4 20.2 66 4.5 WSW 24 32 13 17 1009.0 1008.9 -
30/05:30pm 28.0 27.4 20.6 64 4.9 SW 24 32 13 17 1008.8 1008.7 -
30/05:00pm 28.4 28.5 21.2 65 4.8 WSW 22 30 12 16 1008.6 1008.5 -
30/04:30pm 28.9 28.9 21.7 65 4.8 WSW 24 32 13 17 1008.4 1008.3 -
30/04:00pm 29.1 27.4 21.3 62 5.2 WSW 32 35 17 19 1008.2 1008.1 -
30/03:30pm 29.2 29.0 21.2 62 5.3 WSW 24 32 13 17 1008.4 1008.3 -
30/03:00pm 29.4 29.7 21.6 63 5.2 WSW 22 28 12 15 1008.6 1008.5 -
30/02:30pm 29.3 29.7 21.8 64 5.1 WSW 22 26 12 14 1008.7 1008.6 -
30/02:00pm 30.1 30.9 22.5 63 5.2 W 22 26 12 14 1008.9 1008.8 -
30/01:30pm 29.7 30.0 22.2 64 5.1 W 24 30 13 16 1009.3 1009.2 -
30/01:00pm 30.2 29.7 22.1 62 5.5 W 28 33 15 18 1009.5 1009.4 -
30/12:30pm 30.3 29.8 21.4 59 6.0 W 26 32 14 17 1009.7 1009.6 -
30/12:00pm 31.0 30.9 21.5 57 6.4 W 24 28 13 15 1010.1 1010.0 -
30/11:30am 30.5 30.5 21.0 57 6.3 W 22 28 12 15 1010.4 1010.3 -
30/11:00am 30.9 30.8 19.9 52 7.3 W 20 24 11 13 1010.5 1010.4 -
30/10:30am 31.3 31.6 17.9 44 8.6 W 13 17 7 9 1010.8 1010.7 -
30/10:00am 31.4 31.7 18.0 44 8.6 W 13 17 7 9 1011.1 1011.0 -
30/09:30am 31.3 32.0 17.9 44 8.6 SW 11 17 6 9 1011.2 1011.1 -
30/09:00am 30.2 30.1 16.9 44 8.4 SW 13 17 7 9 1011.3 1011.2 -
30/08:30am 29.0 28.9 18.7 53 6.6 WSW 17 19 9 10 1011.3 1011.2 -
30/08:00am 28.4 28.3 19.6 59 5.7 SSW 19 20 10 11 1011.0 1010.9 -
30/07:30am 28.0 27.9 20.0 61 5.2 SSW 20 24 11 13 1010.9 1010.8 -
30/07:00am 27.3 27.7 19.9 64 4.8 SW 17 20 9 11 1010.8 1010.7 -
30/06:30am 26.3 26.6 20.4 70 3.9 SW 19 22 10 12 1010.6 1010.5 -
30/06:00am 25.5 25.2 20.3 73 3.4 SSW 22 26 12 14 1010.2 1010.1 -
30/05:30am 25.2 24.3 19.8 72 3.5 SW 24 28 13 15 1010.0 1009.9 -
30/05:00am 25.4 23.7 19.8 71 3.6 SW 28 33 15 18 1009.5 1009.4 -
30/04:30am 25.4 22.9 19.8 71 3.6 SW 32 37 17 20 1009.3 1009.2 -
30/04:00am 25.4 23.8 20.0 72 3.5 SW 28 33 15 18 1009.6 1009.5 -
30/03:30am 25.5 23.5 19.9 71 3.6 SW 30 37 16 20 1009.5 1009.4 -
30/03:00am 25.5 24.1 21.2 77 2.8 SW 30 35 16 19 1009.4 1009.3 -
30/02:30am 25.4 25.1 22.5 84 2.0 SW 28 35 15 19 1009.3 1009.2 -
30/02:00am 25.3 24.9 23.0 87 1.6 SW 30 37 16 20 1009.5 1009.4 -
30/01:30am 25.1 25.3 22.8 87 1.6 SW 26 33 14 18 1009.6 1009.5 -
30/01:00am 25.2 24.8 22.3 84 1.9 WSW 28 33 15 18 1009.9 1009.8 -
30/12:30am 25.3 25.8 22.6 85 1.8 WSW 24 32 13 17 1010.3 1010.2 -
30/12:00am 25.3 24.9 22.4 84 2.0 SW 28 33 15 18 1010.4 1010.3 -
 
Date/Time
WST
Temp
°C
App
Temp
°C
Dew
Point
Rel
Hum
%
Delta-T
°C
Wind Press
QNH
hPa
Press
MSL
hPa
Rain
since 9 am
mm
Dir
 
Spd
km/h
Gust
km/h
Spd
kts
Gust
kts
29/11:30pm 25.3 25.3 22.4 84 1.9 WSW 26 33 14 18 1010.8 1010.7 -
29/11:00pm 25.6 26.2 22.1 81 2.3 WSW 22 28 12 15 1011.2 1011.1 -
29/10:30pm 25.5 25.5 21.6 79 2.6 WSW 24 28 13 15 1011.4 1011.3 -
29/10:00pm 25.6 25.9 21.5 78 2.7 WSW 22 26 12 14 1011.4 1011.3 -
29/09:30pm 25.6 25.3 21.1 76 3.0 WSW 24 30 13 16 1011.3 1011.2 -
29/09:00pm 25.6 25.5 21.5 78 2.7 WSW 24 28 13 15 1011.4 1011.3 -
29/08:30pm 25.7 25.9 22.0 80 2.5 WSW 24 30 13 16 1011.3 1011.2 -
29/08:00pm 25.4 26.6 22.5 84 2.0 WSW 20 26 11 14 1011.2 1011.1 -
29/07:30pm 25.3 26.5 23.2 88 1.4 WSW 22 26 12 14 1010.9 1010.8 -
29/07:00pm 25.3 26.4 23.0 87 1.6 W 22 28 12 15 1010.5 1010.4 -
29/06:30pm 25.5 26.4 22.6 84 2.0 W 22 28 12 15 1010.4 1010.3 -
29/06:00pm 26.0 26.7 22.3 80 2.5 W 22 28 12 15 1010.2 1010.1 -
29/05:30pm 26.7 26.9 22.1 76 3.1 W 24 32 13 17 1010.0 1009.9 -
29/05:00pm 27.4 27.6 22.1 73 3.6 W 24 28 13 15 1010.0 1009.9 -
29/04:30pm 28.1 28.8 22.3 70 3.9 W 22 28 12 15 1009.8 1009.7 -
29/04:00pm 28.3 28.5 22.1 69 4.2 W 24 28 13 15 1009.9 1009.8 -
29/03:30pm 28.2 28.0 21.2 65 4.7 W 24 28 13 15 1010.0 1009.9 -
29/03:00pm 28.5 28.8 21.5 66 4.7 W 22 28 12 15 1010.1 1010.0 -
29/02:30pm 28.8 29.5 22.3 68 4.4 W 22 28 12 15 1010.3 1010.2 -
29/02:00pm 28.6 28.7 22.6 70 4.1 W 26 32 14 17 1010.4 1010.3 -
29/01:30pm 28.7 28.6 22.9 71 4.0 W 28 32 15 17 1010.8 1010.7 -
29/01:00pm 28.5 28.1 22.3 69 4.2 W 28 32 15 17 1011.0 1010.9 -
29/12:30pm 29.7 30.1 22.4 65 5.0 WSW 24 28 13 15 1011.4 1011.3 -
29/12:00pm 28.9 28.3 21.9 66 4.7 WSW 28 32 15 17 1011.6 1011.5 -
29/11:30am 28.8 28.0 21.6 65 4.8 WSW 28 32 15 17 1011.8 1011.7 -
29/11:00am 29.2 28.6 21.2 62 5.3 WSW 26 30 14 16 1011.9 1011.8 -
29/10:30am 28.8 28.9 21.8 66 4.7 WSW 24 26 13 14 1012.2 1012.1 -
29/10:00am 29.4 30.5 23.1 69 4.3 WSW 22 26 12 14 1012.3 1012.2 -
29/09:30am 28.7 30.4 23.1 71 3.8 SW 19 22 10 12 1012.5 1012.4 -
29/09:00am 27.8 29.3 23.0 75 3.3 WSW 20 26 11 14 1012.5 1012.4 -
29/08:30am 27.9 30.5 23.9 79 2.8 SW 17 24 9 13 1012.4 1012.3 -
29/08:00am 26.5 28.5 24.0 86 1.7 WSW 20 24 11 13 1012.3 1012.2 -
29/07:30am 25.9 28.6 25.0 95 0.6 WSW 20 24 11 13 1011.9 1011.8 -
29/07:00am 25.1 28.4 25.1 100 0.0 WSW 17 22 9 12 1011.6 1011.5 -
29/06:30am 24.4 28.0 24.4 100 0.0 W 13 17 7 9 1011.5 1011.4 -
29/06:00am 23.8 26.7 23.8 100 0.0 W 15 17 8 9 1011.6 1011.5 -
29/05:30am 23.6 26.7 23.6 100 0.0 W 13 17 7 9 1011.4 1011.3 -
29/05:00am 23.6 26.7 23.6 100 0.0 W 13 17 7 9 1011.1 1011.0 -
29/04:30am 23.8 25.9 23.8 100 0.0 W 19 22 10 12 1010.7 1010.6 -
29/04:00am 23.8 26.7 23.8 100 0.0 W 15 19 8 10 1011.0 1010.9 -
29/03:30am 23.9 26.1 23.9 100 0.0 W 19 22 10 12 1010.7 1010.6 -
29/03:00am 24.0 26.6 24.0 100 0.0 W 17 20 9 11 1010.6 1010.5 -
29/02:30am 24.0 26.2 24.0 100 0.0 W 19 20 10 11 1010.4 1010.3 -
29/02:00am 24.0 26.0 24.0 100 0.0 W 20 24 11 13 1010.3 1010.2 -
29/01:30am 24.1 26.2 24.1 100 0.0 W 20 24 11 13 1010.4 1010.3 -
29/01:00am 24.1 25.8 24.1 100 0.0 W 22 26 12 14 1010.6 1010.5 -
29/12:30am 24.1 26.2 24.1 100 0.0 WNW 20 24 11 13 1010.8 1010.7 -
29/12:00am 24.2 27.3 24.2 100 0.0 WNW 15 20 8 11 1010.8 1010.7 -
 
Date/Time
WST
Temp
°C
App
Temp
°C
Dew
Point
Rel
Hum
%
Delta-T
°C
Wind Press
QNH
hPa
Press
MSL
hPa
Rain
since 9 am
mm
Dir
 
Spd
km/h
Gust
km/h
Spd
kts
Gust
kts
28/11:30pm 24.3 27.5 24.3 100 0.0 NW 15 17 8 9 1011.1 1011.0 -
28/11:00pm 24.3 27.5 24.3 100 0.0 NW 15 17 8 9 1011.3 1011.2 -
28/10:30pm 24.3 27.5 24.3 100 0.0 WNW 15 17 8 9 1011.1 1011.0 -
28/10:00pm 24.5 27.8 24.5 100 0.0 NW 15 17 8 9 1011.1 1011.0 -
28/09:30pm 24.6 28.2 24.4 99 0.1 NW 13 15 7 8 1011.0 1010.9 -
28/09:00pm 24.8 28.4 24.3 97 0.3 NW 13 15 7 8 1010.8 1010.7 -
28/08:30pm 24.7 28.3 23.8 95 0.6 NW 11 15 6 8 1010.8 1010.7 -
28/08:00pm 24.8 27.9 23.6 93 0.8 NW 13 15 7 8 1010.7 1010.6 -
28/07:30pm 25.0 27.8 23.6 92 1.0 WNW 15 19 8 10 1010.2 1010.1 -
28/07:00pm 25.1 27.6 23.2 89 1.3 WNW 15 17 8 9 1009.9 1009.8 -
28/06:30pm 25.4 27.9 23.1 87 1.6 NW 15 17 8 9 1009.5 1009.4 -
28/06:00pm 25.9 28.7 23.0 84 2.0 NW 13 17 7 9 1009.5 1009.4 -
28/05:30pm 26.4 29.4 23.3 83 2.1 NNW 13 15 7 8 1009.1 1009.0 -

Other Formats:

Comma delimited format used in spreadsheet applications
http://www.bom.gov.au/fwo/IDW60801/IDW60801.94307.axf

JavaScript Object Notation format (JSON) in row-major order
http://www.bom.gov.au/fwo/IDW60801/IDW60801.94307.json